sensor_id;sensor_type;location;lat;lon;timestamp;pressure;altitude;pressure_sealevel;temperature;humidity
36260;BME280;22296;50.824;5.644;2023-02-01T00:00:54;101265.50;;;12.86;57.46
36260;BME280;22296;50.824;5.644;2023-02-01T00:03:21;101272.69;;;12.87;57.09
36260;BME280;22296;50.824;5.644;2023-02-01T00:05:56;101276.03;;;12.84;57.10
36260;BME280;22296;50.824;5.644;2023-02-01T00:08:23;101275.28;;;12.79;57.44
36260;BME280;22296;50.824;5.644;2023-02-01T00:11:01;101278.81;;;12.84;57.10
36260;BME280;22296;50.824;5.644;2023-02-01T00:13:31;101282.69;;;12.83;57.38
36260;BME280;22296;50.824;5.644;2023-02-01T00:19:14;101275.56;;;12.77;57.32
36260;BME280;22296;50.824;5.644;2023-02-01T00:21:41;101267.56;;;12.76;57.45
36260;BME280;22296;50.824;5.644;2023-02-01T00:24:09;101261.19;;;12.75;57.56
36260;BME280;22296;50.824;5.644;2023-02-01T00:26:39;101261.50;;;12.74;57.42
36260;BME280;22296;50.824;5.644;2023-02-01T00:29:13;101256.84;;;12.69;57.29
36260;BME280;22296;50.824;5.644;2023-02-01T00:31:41;101256.31;;;12.67;57.55
36260;BME280;22296;50.824;5.644;2023-02-01T00:34:13;101253.56;;;12.67;57.58
36260;BME280;22296;50.824;5.644;2023-02-01T00:36:41;101257.50;;;12.61;57.61
36260;BME280;22296;50.824;5.644;2023-02-01T00:39:09;101251.97;;;12.61;57.62
36260;BME280;22296;50.824;5.644;2023-02-01T00:41:36;101239.81;;;12.57;57.80
36260;BME280;22296;50.824;5.644;2023-02-01T00:44:03;101232.66;;;12.56;57.61
36260;BME280;22296;50.824;5.644;2023-02-01T00:46:30;101237.94;;;12.52;57.80
36260;BME280;22296;50.824;5.644;2023-02-01T00:48:57;101232.72;;;12.51;57.88
36260;BME280;22296;50.824;5.644;2023-02-01T00:51:27;101241.03;;;12.51;58.00
36260;BME280;22296;50.824;5.644;2023-02-01T00:53:54;101250.44;;;12.50;57.76
36260;BME280;22296;50.824;5.644;2023-02-01T00:56:24;101243.25;;;12.49;58.01
36260;BME280;22296;50.824;5.644;2023-02-01T00:58:51;101231.34;;;12.48;58.04
36260;BME280;22296;50.824;5.644;2023-02-01T01:01:23;101216.16;;;12.46;57.91
36260;BME280;22296;50.824;5.644;2023-02-01T01:03:56;101206.25;;;12.45;57.87
36260;BME280;22296;50.824;5.644;2023-02-01T01:06:26;101204.06;;;12.42;57.97
36260;BME280;22296;50.824;5.644;2023-02-01T01:08:55;101195.22;;;12.40;57.95
36260;BME280;22296;50.824;5.644;2023-02-01T01:11:24;101195.22;;;12.40;58.21
36260;BME280;22296;50.824;5.644;2023-02-01T01:13:53;101188.88;;;12.39;58.19
36260;BME280;22296;50.824;5.644;2023-02-01T01:16:21;101177.56;;;12.36;58.08
36260;BME280;22296;50.824;5.644;2023-02-01T01:18:48;101191.94;;;12.38;58.11
36260;BME280;22296;50.824;5.644;2023-02-01T01:21:16;101191.69;;;12.34;58.20
36260;BME280;22296;50.824;5.644;2023-02-01T01:23:44;101208.59;;;12.33;58.22
36260;BME280;22296;50.824;5.644;2023-02-01T01:26:16;101218.28;;;12.30;58.35
36260;BME280;22296;50.824;5.644;2023-02-01T01:28:44;101225.69;;;12.35;58.10
36260;BME280;22296;50.824;5.644;2023-02-01T01:31:15;101235.91;;;12.39;58.02
36260;BME280;22296;50.824;5.644;2023-02-01T01:33:44;101240.66;;;12.34;58.05
36260;BME280;22296;50.824;5.644;2023-02-01T01:36:11;101237.91;;;12.34;58.18
36260;BME280;22296;50.824;5.644;2023-02-01T01:38:40;101229.00;;;12.37;58.05
36260;BME280;22296;50.824;5.644;2023-02-01T01:41:08;101227.28;;;12.41;57.72
36260;BME280;22296;50.824;5.644;2023-02-01T01:44:05;101228.41;;;12.40;58.00
36260;BME280;22296;50.824;5.644;2023-02-01T01:46:36;101222.88;;;12.40;57.76
36260;BME280;22296;50.824;5.644;2023-02-01T01:51:36;101223.41;;;12.42;57.90
36260;BME280;22296;50.824;5.644;2023-02-01T01:54:20;101218.53;;;12.34;58.08
36260;BME280;22296;50.824;5.644;2023-02-01T01:56:52;101206.41;;;12.30;58.25
36260;BME280;22296;50.824;5.644;2023-02-01T01:59:22;101211.22;;;12.43;57.70
36260;BME280;22296;50.824;5.644;2023-02-01T02:01:51;101196.41;;;12.34;58.06
36260;BME280;22296;50.824;5.644;2023-02-01T02:04:19;101187.81;;;12.35;58.01
36260;BME280;22296;50.824;5.644;2023-02-01T02:06:59;101201.31;;;12.37;58.04
36260;BME280;22296;50.824;5.644;2023-02-01T02:09:27;101204.06;;;12.42;57.58
36260;BME280;22296;50.824;5.644;2023-02-01T02:11:54;101214.28;;;12.41;57.67
36260;BME280;22296;50.824;5.644;2023-02-01T02:14:23;101220.06;;;12.45;57.59
36260;BME280;22296;50.824;5.644;2023-02-01T02:30:37;101236.09;;;12.48;57.27
36260;BME280;22296;50.824;5.644;2023-02-01T02:33:39;101233.13;;;12.39;57.88
36260;BME280;22296;50.824;5.644;2023-02-01T02:39:04;101231.47;;;12.38;57.69
36260;BME280;22296;50.824;5.644;2023-02-01T02:47:33;101237.25;;;12.42;57.45
36260;BME280;22296;50.824;5.644;2023-02-01T02:50:28;101234.53;;;12.37;57.48
36260;BME280;22296;50.824;5.644;2023-02-01T02:53:42;101236.75;;;12.35;57.66
36260;BME280;22296;50.824;5.644;2023-02-01T02:56:25;101223.13;;;12.43;57.32
36260;BME280;22296;50.824;5.644;2023-02-01T02:59:14;101220.66;;;12.42;57.44
36260;BME280;22296;50.824;5.644;2023-02-01T03:02:02;101227.22;;;12.46;57.15
36260;BME280;22296;50.824;5.644;2023-02-01T03:04:54;101220.94;;;12.40;57.46
36260;BME280;22296;50.824;5.644;2023-02-01T03:10:17;101222.94;;;12.35;57.67
36260;BME280;22296;50.824;5.644;2023-02-01T03:12:53;101218.75;;;12.14;59.06
36260;BME280;22296;50.824;5.644;2023-02-01T03:15:48;101213.22;;;12.14;58.50
36260;BME280;22296;50.824;5.644;2023-02-01T03:18:26;101221.69;;;12.46;57.38
36260;BME280;22296;50.824;5.644;2023-02-01T03:20:55;101208.41;;;12.48;57.16
36260;BME280;22296;50.824;5.644;2023-02-01T03:23:27;101200.75;;;12.40;57.63
36260;BME280;22296;50.824;5.644;2023-02-01T03:25:57;101207.94;;;12.41;57.28
36260;BME280;22296;50.824;5.644;2023-02-01T03:28:28;101200.28;;;12.33;57.57
36260;BME280;22296;50.824;5.644;2023-02-01T03:30:58;101190.88;;;12.34;57.24
36260;BME280;22296;50.824;5.644;2023-02-01T03:33:26;101197.59;;;12.28;57.64
36260;BME280;22296;50.824;5.644;2023-02-01T03:39:13;101211.94;;;12.30;57.49
36260;BME280;22296;50.824;5.644;2023-02-01T03:41:44;101203.69;;;12.25;57.36
36260;BME280;22296;50.824;5.644;2023-02-01T03:44:21;101201.47;;;12.27;57.34
36260;BME280;22296;50.824;5.644;2023-02-01T03:46:56;101189.88;;;12.25;57.38
36260;BME280;22296;50.824;5.644;2023-02-01T03:49:28;101192.09;;;12.23;57.41
36260;BME280;22296;50.824;5.644;2023-02-01T03:51:58;101187.22;;;12.15;57.30
36260;BME280;22296;50.824;5.644;2023-02-01T03:54:27;101191.56;;;12.21;57.18
36260;BME280;22296;50.824;5.644;2023-02-01T03:56:56;101186.38;;;12.14;57.43
36260;BME280;22296;50.824;5.644;2023-02-01T03:59:25;101186.16;;;12.11;57.45
36260;BME280;22296;50.824;5.644;2023-02-01T04:01:52;101192.09;;;12.23;57.00
36260;BME280;22296;50.824;5.644;2023-02-01T04:04:19;101197.75;;;12.13;57.56
36260;BME280;22296;50.824;5.644;2023-02-01T04:06:50;101202.16;;;12.14;57.40
36260;BME280;22296;50.824;5.644;2023-02-01T04:09:17;101204.94;;;12.14;57.30
36260;BME280;22296;50.824;5.644;2023-02-01T04:11:44;101203.84;;;12.10;57.46
36260;BME280;22296;50.824;5.644;2023-02-01T04:14:10;101200.59;;;12.02;57.57
36260;BME280;22296;50.824;5.644;2023-02-01T04:16:37;101201.16;;;12.05;57.44
36260;BME280;22296;50.824;5.644;2023-02-01T04:19:04;101209.72;;;12.03;57.58
36260;BME280;22296;50.824;5.644;2023-02-01T04:21:31;101207.19;;;12.07;57.38
36260;BME280;22296;50.824;5.644;2023-02-01T04:23:58;101212.16;;;12.10;57.27
36260;BME280;22296;50.824;5.644;2023-02-01T04:26:25;101208.94;;;11.97;57.57
36260;BME280;22296;50.824;5.644;2023-02-01T04:28:52;101216.59;;;12.06;57.21
36260;BME280;22296;50.824;5.644;2023-02-01T04:31:19;101217.25;;;11.97;57.32
36260;BME280;22296;50.824;5.644;2023-02-01T04:33:53;101220.31;;;11.96;57.46
36260;BME280;22296;50.824;5.644;2023-02-01T04:36:21;101230.00;;;11.93;57.50
36260;BME280;22296;50.824;5.644;2023-02-01T04:38:49;101234.97;;;11.96;57.46
36260;BME280;22296;50.824;5.644;2023-02-01T04:41:17;101223.28;;;11.99;57.31
36260;BME280;22296;50.824;5.644;2023-02-01T04:43:49;101222.81;;;11.92;57.49
36260;BME280;22296;50.824;5.644;2023-02-01T04:46:17;101214.00;;;11.90;57.43
36260;BME280;22296;50.824;5.644;2023-02-01T04:48:44;101219.19;;;11.97;57.19
36260;BME280;22296;50.824;5.644;2023-02-01T04:51:11;101218.38;;;11.96;57.34
36260;BME280;22296;50.824;5.644;2023-02-01T04:53:38;101207.31;;;11.96;57.15
36260;BME280;22296;50.824;5.644;2023-02-01T04:56:05;101223.41;;;11.89;57.33
36260;BME280;22296;50.824;5.644;2023-02-01T04:58:32;101205.16;;;11.88;57.38
36260;BME280;22296;50.824;5.644;2023-02-01T05:01:02;101211.66;;;12.02;56.88
36260;BME280;22296;50.824;5.644;2023-02-01T05:03:34;101211.06;;;12.06;56.83
36260;BME280;22296;50.824;5.644;2023-02-01T05:06:01;101207.91;;;11.93;57.03
36260;BME280;22296;50.824;5.644;2023-02-01T05:08:31;101205.06;;;11.98;56.75
36260;BME280;22296;50.824;5.644;2023-02-01T05:10:58;101204.50;;;12.02;56.83
36260;BME280;22296;50.824;5.644;2023-02-01T05:13:25;101211.19;;;11.95;56.85
36260;BME280;22296;50.824;5.644;2023-02-01T05:16:10;101207.84;;;11.98;56.97
36260;BME280;22296;50.824;5.644;2023-02-01T05:18:37;101217.28;;;11.92;56.84
36260;BME280;22296;50.824;5.644;2023-02-01T05:21:04;101203.16;;;11.94;56.59
36260;BME280;22296;50.824;5.644;2023-02-01T05:23:31;101200.72;;;11.92;56.79
36260;BME280;22296;50.824;5.644;2023-02-01T05:26:01;101196.41;;;11.81;57.03
36260;BME280;22296;50.824;5.644;2023-02-01T05:28:28;101202.78;;;11.77;57.06
36260;BME280;22296;50.824;5.644;2023-02-01T05:30:55;101195.81;;;11.84;57.04
36260;BME280;22296;50.824;5.644;2023-02-01T05:33:22;101190.28;;;11.84;56.81
36260;BME280;22296;50.824;5.644;2023-02-01T05:35:48;101186.44;;;11.80;56.95
36260;BME280;22296;50.824;5.644;2023-02-01T05:38:16;101182.63;;;11.76;57.11
36260;BME280;22296;50.824;5.644;2023-02-01T05:40:43;101193.72;;;11.71;57.22
36260;BME280;22296;50.824;5.644;2023-02-01T05:43:15;101190.69;;;11.73;57.05
36260;BME280;22296;50.824;5.644;2023-02-01T05:45:42;101190.94;;;11.76;56.98
36260;BME280;22296;50.824;5.644;2023-02-01T05:48:09;101197.56;;;11.75;57.06
36260;BME280;22296;50.824;5.644;2023-02-01T05:50:36;101190.88;;;11.81;56.59
36260;BME280;22296;50.824;5.644;2023-02-01T05:53:07;101193.97;;;11.75;56.69
36260;BME280;22296;50.824;5.644;2023-02-01T05:55:36;101198.97;;;11.73;56.81
36260;BME280;22296;50.824;5.644;2023-02-01T05:58:03;101204.44;;;11.78;56.68
36260;BME280;22296;50.824;5.644;2023-02-01T06:00:30;101194.75;;;11.80;56.61
36260;BME280;22296;50.824;5.644;2023-02-01T06:02:57;101194.78;;;11.75;56.96
36260;BME280;22296;50.824;5.644;2023-02-01T06:05:24;101190.09;;;11.76;56.79
36260;BME280;22296;50.824;5.644;2023-02-01T06:07:51;101191.03;;;11.61;57.19
36260;BME280;22296;50.824;5.644;2023-02-01T06:10:18;101184.41;;;11.62;56.93
36260;BME280;22296;50.824;5.644;2023-02-01T06:12:46;101182.41;;;11.68;56.96
36260;BME280;22296;50.824;5.644;2023-02-01T06:15:13;101182.16;;;11.64;56.57
36260;BME280;22296;50.824;5.644;2023-02-01T06:17:45;101193.22;;;11.64;56.89
36260;BME280;22296;50.824;5.644;2023-02-01T06:20:13;101196.03;;;11.59;56.86
36260;BME280;22296;50.824;5.644;2023-02-01T06:22:41;101200.47;;;11.55;56.92
36260;BME280;22296;50.824;5.644;2023-02-01T06:25:09;101199.78;;;11.68;56.79
36260;BME280;22296;50.824;5.644;2023-02-01T06:27:36;101208.13;;;11.63;56.72
36260;BME280;22296;50.824;5.644;2023-02-01T06:30:05;101210.94;;;11.58;56.89
36260;BME280;22296;50.824;5.644;2023-02-01T06:32:52;101212.59;;;11.59;56.81
36260;BME280;22296;50.824;5.644;2023-02-01T06:35:21;101212.09;;;11.52;56.90
36260;BME280;22296;50.824;5.644;2023-02-01T06:37:48;101211.00;;;11.48;57.17
36260;BME280;22296;50.824;5.644;2023-02-01T06:40:14;101222.56;;;11.55;56.82
36260;BME280;22296;50.824;5.644;2023-02-01T06:42:41;101224.16;;;11.61;56.58
36260;BME280;22296;50.824;5.644;2023-02-01T06:45:08;101215.88;;;11.61;56.49
36260;BME280;22296;50.824;5.644;2023-02-01T06:47:35;101215.94;;;11.51;56.88
36260;BME280;22296;50.824;5.644;2023-02-01T06:50:03;101214.31;;;11.50;56.84
36260;BME280;22296;50.824;5.644;2023-02-01T06:52:29;101208.78;;;11.50;56.81
36260;BME280;22296;50.824;5.644;2023-02-01T06:54:56;101203.28;;;11.45;56.96
36260;BME280;22296;50.824;5.644;2023-02-01T06:57:23;101214.31;;;11.50;56.66
36260;BME280;22296;50.824;5.644;2023-02-01T06:59:49;101206.41;;;11.38;56.92
36260;BME280;22296;50.824;5.644;2023-02-01T07:02:19;101206.25;;;11.54;56.66
36260;BME280;22296;50.824;5.644;2023-02-01T07:04:46;101214.81;;;11.57;56.33
36260;BME280;22296;50.824;5.644;2023-02-01T07:07:16;101230.31;;;11.48;56.64
36260;BME280;22296;50.824;5.644;2023-02-01T07:09:43;101239.72;;;11.52;56.51
36260;BME280;22296;50.824;5.644;2023-02-01T07:12:10;101237.47;;;11.54;56.39
36260;BME280;22296;50.824;5.644;2023-02-01T07:14:36;101240.84;;;11.46;56.69
36260;BME280;22296;50.824;5.644;2023-02-01T07:17:03;101237.03;;;11.37;56.80
36260;BME280;22296;50.824;5.644;2023-02-01T07:19:32;101239.44;;;11.49;56.51
36260;BME280;22296;50.824;5.644;2023-02-01T07:21:59;101230.91;;;11.45;56.55
36260;BME280;22296;50.824;5.644;2023-02-01T07:24:26;101234.50;;;11.45;56.56
36260;BME280;22296;50.824;5.644;2023-02-01T07:26:52;101233.19;;;11.38;56.80
36260;BME280;22296;50.824;5.644;2023-02-01T07:29:19;101234.63;;;11.25;57.97
36260;BME280;22296;50.824;5.644;2023-02-01T07:31:47;101238.84;;;11.18;58.53
36260;BME280;22296;50.824;5.644;2023-02-01T07:34:13;101225.56;;;11.25;58.51
36260;BME280;22296;50.824;5.644;2023-02-01T07:36:40;101229.91;;;11.31;58.66
36260;BME280;22296;50.824;5.644;2023-02-01T07:39:08;101233.19;;;11.38;58.66
36260;BME280;22296;50.824;5.644;2023-02-01T07:41:35;101230.63;;;11.47;58.43
36260;BME280;22296;50.824;5.644;2023-02-01T07:44:01;101244.13;;;11.53;58.30
36260;BME280;22296;50.824;5.644;2023-02-01T07:46:28;101234.44;;;11.56;58.12
36260;BME280;22296;50.824;5.644;2023-02-01T07:48:55;101245.16;;;11.62;57.92
36260;BME280;22296;50.824;5.644;2023-02-01T07:51:22;101249.28;;;11.70;57.99
36260;BME280;22296;50.824;5.644;2023-02-01T07:54:07;101252.03;;;11.70;57.98
36260;BME280;22296;50.824;5.644;2023-02-01T07:56:34;101248.97;;;11.71;58.07
36260;BME280;22296;50.824;5.644;2023-02-01T07:59:01;101236.81;;;11.72;58.08
36260;BME280;22296;50.824;5.644;2023-02-01T08:01:28;101243.91;;;11.83;58.04
36260;BME280;22296;50.824;5.644;2023-02-01T08:04:02;101244.00;;;11.73;58.03
36260;BME280;22296;50.824;5.644;2023-02-01T08:06:31;101247.94;;;11.57;58.20
36260;BME280;22296;50.824;5.644;2023-02-01T08:08:58;101257.38;;;11.51;58.11
36260;BME280;22296;50.824;5.644;2023-02-01T08:11:25;101259.88;;;11.53;57.88
36260;BME280;22296;50.824;5.644;2023-02-01T08:13:52;101259.09;;;11.47;58.06
36260;BME280;22296;50.824;5.644;2023-02-01T08:16:22;101267.41;;;11.42;58.07
36260;BME280;22296;50.824;5.644;2023-02-01T08:18:50;101266.00;;;11.39;58.05
36260;BME280;22296;50.824;5.644;2023-02-01T08:21:23;101272.38;;;11.40;58.13
36260;BME280;22296;50.824;5.644;2023-02-01T08:23:50;101269.06;;;11.38;58.19
36260;BME280;22296;50.824;5.644;2023-02-01T08:26:20;101270.19;;;11.37;58.01
36260;BME280;22296;50.824;5.644;2023-02-01T08:28:51;101270.75;;;11.34;58.07
36260;BME280;22296;50.824;5.644;2023-02-01T08:31:20;101275.16;;;11.35;57.95
36260;BME280;22296;50.824;5.644;2023-02-01T08:33:49;101292.03;;;11.33;57.93
36260;BME280;22296;50.824;5.644;2023-02-01T08:36:16;101278.50;;;11.32;57.96
36260;BME280;22296;50.824;5.644;2023-02-01T08:38:43;101278.50;;;11.32;58.14
36260;BME280;22296;50.824;5.644;2023-02-01T08:41:14;101293.97;;;11.33;57.89
36260;BME280;22296;50.824;5.644;2023-02-01T08:43:41;101291.22;;;11.33;57.78
36260;BME280;22296;50.824;5.644;2023-02-01T08:46:09;101289.81;;;11.35;57.79
36260;BME280;22296;50.824;5.644;2023-02-01T08:48:37;101291.69;;;11.40;58.00
36260;BME280;22296;50.824;5.644;2023-02-01T08:51:06;101293.94;;;11.38;58.08
36260;BME280;22296;50.824;5.644;2023-02-01T08:53:34;101291.66;;;11.45;57.52
36260;BME280;22296;50.824;5.644;2023-02-01T08:56:01;101292.28;;;11.37;57.87
36260;BME280;22296;50.824;5.644;2023-02-01T08:58:28;101287.88;;;11.31;57.86
36260;BME280;22296;50.824;5.644;2023-02-01T09:00:55;101290.13;;;11.29;57.87
36260;BME280;22296;50.824;5.644;2023-02-01T09:03:21;101291.78;;;11.30;57.87
36260;BME280;22296;50.824;5.644;2023-02-01T09:05:48;101292.88;;;11.29;57.84
36260;BME280;22296;50.824;5.644;2023-02-01T09:08:16;101286.25;;;11.30;57.96
36260;BME280;22296;50.824;5.644;2023-02-01T09:10:42;101303.88;;;11.34;57.90
36260;BME280;22296;50.824;5.644;2023-02-01T09:13:09;101297.22;;;11.40;57.54
36260;BME280;22296;50.824;5.644;2023-02-01T09:15:37;101300.03;;;11.35;57.80
36260;BME280;22296;50.824;5.644;2023-02-01T09:18:04;101292.22;;;11.47;57.72
36260;BME280;22296;50.824;5.644;2023-02-01T09:20:31;101296.41;;;11.39;57.73
36260;BME280;22296;50.824;5.644;2023-02-01T09:22:57;101292.53;;;11.40;57.91
36260;BME280;22296;50.824;5.644;2023-02-01T09:25:24;101288.91;;;11.45;57.84
36260;BME280;22296;50.824;5.644;2023-02-01T09:27:51;101280.66;;;11.40;57.67
36260;BME280;22296;50.824;5.644;2023-02-01T09:30:18;101282.81;;;11.48;57.88
36260;BME280;22296;50.824;5.644;2023-02-01T09:32:45;101275.63;;;11.52;57.73
36260;BME280;22296;50.824;5.644;2023-02-01T09:35:11;101280.03;;;11.53;57.39
36260;BME280;22296;50.824;5.644;2023-02-01T09:37:38;101271.75;;;11.53;57.17
36260;BME280;22296;50.824;5.644;2023-02-01T09:40:05;101272.31;;;11.50;57.47
36260;BME280;22296;50.824;5.644;2023-02-01T09:42:57;101266.81;;;11.45;57.41
36260;BME280;22296;50.824;5.644;2023-02-01T09:48:40;101251.31;;;11.49;57.02
36260;BME280;22296;50.824;5.644;2023-02-01T09:51:19;101252.97;;;11.50;57.03
36260;BME280;22296;50.824;5.644;2023-02-01T09:54:11;101238.66;;;11.43;57.80
36260;BME280;22296;50.824;5.644;2023-02-01T09:56:49;101240.91;;;11.41;58.15
36260;BME280;22296;50.824;5.644;2023-02-01T10:02:02;101246.59;;;11.55;57.57
36260;BME280;22296;50.824;5.644;2023-02-01T10:04:30;101238.56;;;11.58;57.52
36260;BME280;22296;50.824;5.644;2023-02-01T10:10:10;101252.47;;;11.43;58.08
36260;BME280;22296;50.824;5.644;2023-02-01T10:26:21;101261.41;;;11.69;57.51
36260;BME280;22296;50.824;5.644;2023-02-01T10:28:53;101263.34;;;11.73;57.43
36260;BME280;22296;50.824;5.644;2023-02-01T10:31:25;101256.66;;;11.79;57.24
36260;BME280;22296;50.824;5.644;2023-02-01T10:33:58;101264.56;;;11.91;57.04
36260;BME280;22296;50.824;5.644;2023-02-01T10:36:35;101263.00;;;12.09;56.65
36260;BME280;22296;50.824;5.644;2023-02-01T10:39:04;101268.41;;;12.24;56.13
36260;BME280;22296;50.824;5.644;2023-02-01T10:41:39;101275.44;;;12.40;55.85
36260;BME280;22296;50.824;5.644;2023-02-01T10:44:14;101279.19;;;12.54;55.50
36260;BME280;22296;50.824;5.644;2023-02-01T10:46:42;101271.34;;;12.61;55.47
36260;BME280;22296;50.824;5.644;2023-02-01T10:49:18;101262.94;;;12.71;55.06
36260;BME280;22296;50.824;5.644;2023-02-01T10:51:54;101261.97;;;12.81;54.75
36260;BME280;22296;50.824;5.644;2023-02-01T10:54:45;101265.44;;;12.91;54.71
36260;BME280;22296;50.824;5.644;2023-02-01T10:57:26;101258.41;;;12.99;54.52
36260;BME280;22296;50.824;5.644;2023-02-01T10:59:55;101250.31;;;13.07;54.23
36260;BME280;22296;50.824;5.644;2023-02-01T11:02:34;101239.66;;;13.14;54.23
36260;BME280;22296;50.824;5.644;2023-02-01T11:05:04;101246.28;;;13.19;54.16
36260;BME280;22296;50.824;5.644;2023-02-01T11:07:32;101231.81;;;13.40;54.34
36260;BME280;22296;50.824;5.644;2023-02-01T11:09:59;101240.72;;;13.56;54.01
36260;BME280;22296;50.824;5.644;2023-02-01T11:17:43;101236.78;;;13.76;53.49
36260;BME280;22296;50.824;5.644;2023-02-01T11:22:59;101237.63;;;13.76;53.35
36260;BME280;22296;50.824;5.644;2023-02-01T11:25:27;101237.16;;;13.69;53.59
36260;BME280;22296;50.824;5.644;2023-02-01T11:27:54;101225.56;;;13.67;53.51
36260;BME280;22296;50.824;5.644;2023-02-01T11:32:54;101213.28;;;13.73;53.21
36260;BME280;22296;50.824;5.644;2023-02-01T11:35:21;101211.63;;;13.72;53.50
36260;BME280;22296;50.824;5.644;2023-02-01T11:37:54;101208.56;;;13.74;53.28
36260;BME280;22296;50.824;5.644;2023-02-01T11:40:23;101207.13;;;13.76;53.38
36260;BME280;22296;50.824;5.644;2023-02-01T11:42:59;101201.81;;;13.80;53.26
36260;BME280;22296;50.824;5.644;2023-02-01T11:45:31;101204.16;;;13.86;53.21
36260;BME280;22296;50.824;5.644;2023-02-01T11:48:00;101187.03;;;13.84;53.07
36260;BME280;22296;50.824;5.644;2023-02-01T11:51:08;101185.09;;;13.85;53.11
36260;BME280;22296;50.824;5.644;2023-02-01T12:30:31;101179.59;;;14.25;52.38
36260;BME280;22296;50.824;5.644;2023-02-01T12:39:23;101172.84;;;14.32;52.22
36260;BME280;22296;50.824;5.644;2023-02-01T12:42:25;101167.00;;;14.33;52.04
36260;BME280;22296;50.824;5.644;2023-02-01T12:45:02;101178.91;;;14.34;52.23
36260;BME280;22296;50.824;5.644;2023-02-01T12:50:15;101164.50;;;14.32;52.06
36260;BME280;22296;50.824;5.644;2023-02-01T12:52:53;101160.00;;;14.36;52.17
36260;BME280;22296;50.824;5.644;2023-02-01T12:55:38;101166.81;;;14.43;52.02
36260;BME280;22296;50.824;5.644;2023-02-01T12:58:21;101172.13;;;14.40;52.06
36260;BME280;22296;50.824;5.644;2023-02-01T13:00:55;101167.59;;;14.44;51.78
36260;BME280;22296;50.824;5.644;2023-02-01T13:03:38;101165.97;;;14.43;51.92
36260;BME280;22296;50.824;5.644;2023-02-01T13:06:23;101157.84;;;14.46;52.02
36260;BME280;22296;50.824;5.644;2023-02-01T13:11:26;101159.81;;;14.46;52.08
36260;BME280;22296;50.824;5.644;2023-02-01T13:14:30;101159.69;;;14.51;51.89
36260;BME280;22296;50.824;5.644;2023-02-01T13:17:04;101165.97;;;14.43;52.10
36260;BME280;22296;50.824;5.644;2023-02-01T13:19:54;101154.25;;;14.46;51.96
36260;BME280;22296;50.824;5.644;2023-02-01T13:22:26;101148.38;;;14.47;52.04
36260;BME280;22296;50.824;5.644;2023-02-01T13:25:12;101151.38;;;14.51;51.98
36260;BME280;22296;50.824;5.644;2023-02-01T13:27:39;101148.28;;;14.52;51.97
36260;BME280;22296;50.824;5.644;2023-02-01T13:30:20;101144.16;;;14.50;51.84
36260;BME280;22296;50.824;5.644;2023-02-01T13:33:29;101140.88;;;14.48;52.16
36260;BME280;22296;50.824;5.644;2023-02-01T13:42:13;101141.81;;;14.57;51.90
36260;BME280;22296;50.824;5.644;2023-02-01T13:44:42;101146.22;;;14.58;51.89
36260;BME280;22296;50.824;5.644;2023-02-01T13:47:34;101136.25;;;14.57;51.74
36260;BME280;22296;50.824;5.644;2023-02-01T13:50:13;101134.31;;;14.57;51.78
36260;BME280;22296;50.824;5.644;2023-02-01T13:53:00;101132.66;;;14.56;51.85
36260;BME280;22296;50.824;5.644;2023-02-01T13:55:36;101139.66;;;14.54;52.11
36260;BME280;22296;50.824;5.644;2023-02-01T13:58:29;101136.88;;;14.54;51.97
36260;BME280;22296;50.824;5.644;2023-02-01T14:03:57;101146.75;;;14.60;51.96
36260;BME280;22296;50.824;5.644;2023-02-01T14:11:49;101144.47;;;14.62;51.80
36260;BME280;22296;50.824;5.644;2023-02-01T14:19:24;101150.72;;;14.67;51.71
36260;BME280;22296;50.824;5.644;2023-02-01T14:21:54;101147.25;;;14.62;51.74
36260;BME280;22296;50.824;5.644;2023-02-01T14:24:35;101154.44;;;14.63;51.86
36260;BME280;22296;50.824;5.644;2023-02-01T14:27:18;101148.28;;;14.66;51.75
36260;BME280;22296;50.824;5.644;2023-02-01T14:29:57;101150.94;;;14.71;51.57
36260;BME280;22296;50.824;5.644;2023-02-01T14:32:36;101154.53;;;14.71;51.70
36260;BME280;22296;50.824;5.644;2023-02-01T14:35:24;101151.97;;;14.75;51.52
36260;BME280;22296;50.824;5.644;2023-02-01T14:37:58;101159.97;;;14.76;51.55
36260;BME280;22296;50.824;5.644;2023-02-01T14:40:27;101165.53;;;14.76;51.48
36260;BME280;22296;50.824;5.644;2023-02-01T14:42:54;101169.63;;;14.79;51.42
36260;BME280;22296;50.824;5.644;2023-02-01T14:47:52;101161.81;;;14.81;51.38
36260;BME280;22296;50.824;5.644;2023-02-01T15:14:23;101173.44;;;14.83;51.53
36260;BME280;22296;50.824;5.644;2023-02-01T15:16:50;101168.38;;;14.85;51.54
36260;BME280;22296;50.824;5.644;2023-02-01T15:19:22;101165.50;;;14.90;51.51
36260;BME280;22296;50.824;5.644;2023-02-01T15:21:51;101171.28;;;14.80;51.69
36260;BME280;22296;50.824;5.644;2023-02-01T15:24:26;101167.97;;;14.78;51.82
36260;BME280;22296;50.824;5.644;2023-02-01T15:26:55;101171.28;;;14.80;51.76
36260;BME280;22296;50.824;5.644;2023-02-01T15:29:23;101171.28;;;14.80;51.57
36260;BME280;22296;50.824;5.644;2023-02-01T15:31:55;101174.34;;;14.78;51.76
36260;BME280;22296;50.824;5.644;2023-02-01T15:34:22;101177.97;;;14.79;51.73
36260;BME280;22296;50.824;5.644;2023-02-01T15:36:49;101187.31;;;14.83;51.62
36260;BME280;22296;50.824;5.644;2023-02-01T15:39:29;101183.00;;;14.77;51.67
36260;BME280;22296;50.824;5.644;2023-02-01T15:42:00;101195.75;;;14.78;51.83
36260;BME280;22296;50.824;5.644;2023-02-01T15:44:34;101192.66;;;14.79;51.69
36260;BME280;22296;50.824;5.644;2023-02-01T15:47:13;101195.66;;;14.83;51.66
36260;BME280;22296;50.824;5.644;2023-02-01T15:49:43;101194.00;;;14.82;51.56
36260;BME280;22296;50.824;5.644;2023-02-01T15:52:35;101199.97;;;14.75;51.88
36260;BME280;22296;50.824;5.644;2023-02-01T15:55:36;101197.72;;;14.77;51.99